Penn Laird, Virginia
Current Conditions -  °F | °C
As of 7:55 PM on Monday 22 Dec 2014 (Local Time) from KVBW Reporting Station
Overcast Overcast  
Wind Chill: 32°   Ceiling: 600
Heat Index: 32°   Visibility: 2.5mi
Dew Point: 31°   Wind: 0mph
Humidity: 96%   Direction: NA
Pressure: 30.12"   Gusts: NA
Location:  38.39°N, 78.8°W
Report Text: KVBW 230055Z AUTO 00000KT 2 1/2SM BKN006 OVC014 00/00 A3012 RMK AO2 T00001005
Loading
Personal Weather Stations






























Interactive Weather Map New forecast layout! Learn more

10-Day Weather Forecast

Advertisements
Track Severe Weather on mobile